Airfield :
LOGIN :

Register | Disclaimer

   EN    FR    IT 

 










Legend :    VFR   Marginal VFR   IFR   Intensive IFR   Very Intensive IFR
Visi :
Ceiling :
>= 8 km
>= 3000ft
5 to 8 km
1000 to 3000 ft
1500m to 5 km
500 to 1000 ft
800 to 1500m
200 to 500 ft
< 800m
< 200 ft
Symbols :   Thunderstorms  Fog  Heavy snow  Heavy precipitations  Wind > 20 kt
SIGMETs :     Misc.  Thunderstorms  Icing  Turbulence  Mountain Waves  Volcanic Ashes







- Airport Elevation : 135 ft
- IATA code : EDI
- Download approach charts


EGPH - Edinburgh

CURRENT METAR :
  • 191350Z 24030G44KT 9999 SCT014TCU SCT025 13/10 Q0990 RERA

EXPIRED METARs :
  • 191320Z 22032G44KT 5000 RA BKN014TCU BKN026 12/10 Q0989
  • 191250Z 22032G47KT 9999 -RA BKN036 14/08 Q0988
  • 191220Z 22030G44KT 9999 BKN044 14/07 Q0987
  • 191150Z 23042G57KT 9999 -RA SCT025 15/07 Q0987
  • 191120Z 22031G44KT 9999 SCT020TCU 16/12 Q0986 RERA

TAF TAF EGPH
Valid from the 19 at 12:00 until the 20 at 12:00 UTC


191100Z 1912/2012 20025G40KT 9999 SCT025
BECMG 1912/1915 23035G55KT
TEMPO 1912/1917 4000 RA
BECMG 1915/1918 22025G40KT
PROB30
TEMPO 1922/2006 7000 SHRA
BECMG 2000/2003 22015G28KT
ATIS : +44 131 339 2823
No reported NOTAMs for that airfield.
2 SIGMETs reported for the Scottish FIR (EGPX) :
 
Severe mountain waves
EGPX SIGMET 10 VALID 191300/191700 EGRR
EGPX SCOTTISH FIR SEV MTW FCST WI N5646 W00124 - N5500 E00108 - N5500 W00530 - N5355 W00530 - N5514 W00847 - N6100 W00250 - N6100 E00000 - N6000 E00000 - N5959 E00002 - N5646 W00124 FL030/250 STNR NC=
Severe turbulence
EGPX SIGMET 09 VALID 191300/191700 EGRR
EGPX SCOTTISH FIR SEV TURB FCST SE OF LINE N5633 W01000 - N6049 E00000 SFC/FL060 STNR NC=



MET'MAP, your aeronautical weather chart ! - Copyright ORBIFLY December 2007 - Disclaimer

ORBIFLY MET'MAP TEAM :

Programming & Development : Alexandra Zaïnal
Concept & Development : Baudouin d'Aumeries
Co-Development & Prog : Marc-Olivier Méhu
Technical & hardware support : Manuel Goepfert

Contact : metmap@orbifly.com




SOURCES & CREDITS :

   NOAA